createdAt,value
2018-10-11T00:01:51.942Z,38.37
2018-10-11T00:04:20.564Z,37.47
2018-10-11T00:06:49.108Z,38.53
2018-10-11T00:09:17.686Z,37.87
2018-10-11T00:11:46.189Z,38.00
2018-10-11T00:14:14.701Z,37.77
2018-10-11T00:16:43.214Z,38.83
2018-10-11T00:19:11.933Z,39.10
2018-10-11T00:21:40.813Z,41.13
2018-10-11T00:24:09.350Z,40.20
2018-10-11T00:26:38.558Z,38.73
2018-10-11T00:29:07.236Z,39.73
2018-10-11T00:31:35.776Z,38.60
2018-10-11T00:34:05.134Z,36.23
2018-10-11T00:36:33.695Z,39.30
2018-10-11T00:39:05.609Z,38.40
2018-10-11T00:41:34.162Z,38.53
2018-10-11T00:44:04.592Z,36.97
2018-10-11T00:46:33.813Z,38.33
2018-10-11T00:49:03.845Z,39.73
2018-10-11T00:51:32.386Z,37.67
2018-10-11T00:54:00.937Z,39.97
2018-10-11T00:56:29.773Z,37.50
2018-10-11T00:58:58.299Z,36.60
2018-10-11T01:01:26.935Z,38.47
2018-10-11T01:03:55.515Z,38.17
2018-10-11T01:06:24.148Z,38.53
2018-10-11T01:08:52.814Z,39.93
2018-10-11T01:11:21.358Z,37.63
2018-10-11T01:13:49.887Z,37.67
2018-10-11T01:16:18.446Z,38.63
2018-10-11T01:18:46.954Z,38.60
2018-10-11T01:21:16.160Z,37.47
2018-10-11T01:23:44.698Z,38.73
2018-10-11T01:26:13.413Z,40.57
2018-10-11T01:28:42.143Z,40.33
2018-10-11T01:31:16.004Z,39.47
2018-10-11T01:33:44.666Z,39.47
2018-10-11T01:36:13.193Z,39.37
2018-10-11T01:38:41.708Z,42.43
2018-10-11T01:41:10.318Z,39.20
2018-10-11T01:43:38.999Z,41.87
2018-10-11T01:46:07.935Z,41.60
2018-10-11T01:48:36.460Z,42.23
2018-10-11T01:51:05.283Z,40.33
2018-10-11T01:53:34.039Z,41.93
2018-10-11T01:56:04.016Z,41.50
2018-10-11T01:58:32.578Z,41.73
2018-10-11T02:01:02.765Z,43.47
2018-10-11T02:03:31.377Z,44.80
2018-10-11T02:06:00.206Z,44.43
2018-10-11T02:08:28.708Z,45.27
2018-10-11T02:10:57.263Z,45.20
2018-10-11T02:13:25.782Z,44.17
2018-10-11T02:15:54.570Z,47.10
2018-10-11T02:18:23.072Z,46.47
2018-10-11T02:20:51.594Z,48.67
2018-10-11T02:23:20.157Z,46.87
2018-10-11T02:25:48.802Z,49.80
2018-10-11T02:28:17.299Z,46.93
2018-10-11T02:30:45.826Z,47.17
2018-10-11T02:33:14.407Z,44.83
2018-10-11T02:35:42.970Z,46.53
2018-10-11T02:38:11.541Z,46.17
2018-10-11T02:40:40.128Z,46.63
2018-10-11T02:43:08.704Z,45.53
2018-10-11T02:45:37.233Z,45.13
2018-10-11T02:48:06.497Z,44.93
2018-10-11T02:50:35.067Z,45.57
2018-10-11T02:53:05.229Z,44.23
2018-10-11T02:55:33.810Z,44.47
2018-10-11T02:58:13.489Z,44.60
2018-10-11T03:00:42.088Z,44.50
2018-10-11T03:03:13.082Z,42.77
2018-10-11T03:05:43.817Z,43.73
2018-10-11T03:08:17.509Z,43.53
2018-10-11T03:10:46.867Z,43.83
2018-10-11T03:13:15.398Z,44.60
2018-10-11T03:15:44.591Z,43.90
2018-10-11T03:18:14.121Z,44.20
2018-10-11T03:20:43.819Z,45.37
2018-10-11T03:23:13.132Z,44.63
2018-10-11T03:25:43.558Z,43.03
2018-10-11T03:28:13.632Z,43.27
2018-10-11T03:30:42.581Z,46.43
2018-10-11T03:33:11.882Z,47.10
2018-10-11T03:35:41.240Z,47.10
2018-10-11T03:38:09.850Z,47.07
2018-10-11T03:40:38.664Z,45.63
2018-10-11T03:43:07.201Z,47.03
2018-10-11T03:45:35.774Z,45.03
2018-10-11T03:48:05.578Z,44.30
2018-10-11T03:50:34.073Z,47.93
2018-10-11T03:53:03.908Z,49.63
2018-10-11T03:55:32.405Z,49.53
2018-10-11T03:58:00.905Z,46.50
2018-10-11T04:00:29.498Z,47.07
2018-10-11T04:02:57.999Z,45.90
2018-10-11T04:05:26.575Z,45.47
2018-10-11T04:07:55.086Z,48.40
2018-10-11T04:10:23.619Z,50.07
2018-10-11T04:12:52.116Z,48.83
2018-10-11T04:15:20.624Z,47.60
2018-10-11T04:17:51.082Z,47.13
2018-10-11T04:20:19.573Z,48.07
2018-10-11T04:22:48.060Z,48.27
2018-10-11T04:25:16.626Z,49.47
2018-10-11T04:27:45.171Z,48.47
2018-10-11T04:30:13.768Z,49.63
2018-10-11T04:32:42.245Z,46.67
2018-10-11T04:35:10.816Z,46.60
2018-10-11T04:37:39.721Z,47.37
2018-10-11T04:40:10.138Z,49.07
2018-10-11T04:42:38.675Z,47.27
2018-10-11T04:45:08.559Z,49.30
2018-10-11T04:47:37.173Z,48.90
2018-10-11T04:50:05.733Z,46.97
2018-10-11T04:52:34.373Z,47.23
2018-10-11T04:55:04.981Z,43.27
2018-10-11T04:57:33.666Z,45.07
2018-10-11T05:00:03.899Z,42.77
2018-10-11T05:02:33.404Z,43.47
2018-10-11T05:05:02.849Z,41.07
2018-10-11T05:07:31.483Z,42.93
2018-10-11T05:10:00.044Z,42.37
2018-10-11T05:12:28.667Z,43.47
2018-10-11T05:14:57.326Z,41.10
2018-10-11T05:17:26.245Z,41.47
2018-10-11T05:19:54.837Z,40.37
2018-10-11T05:22:23.383Z,41.97
2018-10-11T05:24:52.324Z,40.67
2018-10-11T05:27:20.838Z,40.97
2018-10-11T05:29:49.399Z,42.43
2018-10-11T05:32:18.010Z,42.90
2018-10-11T05:34:46.549Z,43.37
2018-10-11T05:37:15.114Z,42.00
2018-10-11T05:39:43.873Z,41.07
2018-10-11T05:42:12.611Z,41.67
2018-10-11T05:44:41.686Z,43.20
2018-10-11T05:47:10.245Z,44.27
2018-10-11T05:49:39.017Z,44.73
2018-10-11T05:52:09.453Z,41.57
2018-10-11T05:54:38.020Z,42.27
2018-10-11T05:57:06.533Z,44.67
2018-10-11T05:59:35.071Z,43.53
2018-10-11T06:02:06.311Z,43.40
2018-10-11T06:04:34.852Z,44.07
2018-10-11T06:07:05.224Z,44.50
2018-10-11T06:09:33.865Z,44.10
2018-10-11T06:12:04.040Z,43.93
2018-10-11T06:14:32.662Z,44.23
2018-10-11T06:17:02.809Z,42.97
2018-10-11T06:19:31.657Z,44.60
2018-10-11T06:22:00.281Z,44.80
2018-10-11T06:24:29.172Z,45.10
2018-10-11T06:26:57.797Z,44.83
2018-10-11T06:29:26.616Z,42.97
2018-10-11T06:31:55.287Z,40.37
2018-10-11T06:34:23.861Z,41.13
2018-10-11T06:36:52.461Z,44.07
2018-10-11T06:39:20.979Z,39.93
2018-10-11T06:41:49.625Z,42.13
2018-10-11T06:44:18.188Z,40.93
2018-10-11T06:46:47.090Z,41.13
2018-10-11T06:49:15.629Z,39.50
2018-10-11T06:51:44.380Z,41.97
2018-10-11T06:54:13.008Z,41.17
2018-10-11T06:56:41.881Z,41.83
2018-10-11T06:59:10.775Z,41.27
2018-10-11T07:01:39.295Z,40.00
2018-10-11T07:04:07.897Z,39.30
2018-10-11T07:06:36.426Z,39.00
2018-10-11T07:09:07.235Z,38.87
2018-10-11T07:11:37.153Z,38.93
2018-10-11T07:14:06.193Z,36.57
2018-10-11T07:16:34.923Z,35.73
2018-10-11T07:19:05.853Z,35.80
2018-10-11T07:21:34.402Z,35.40
2018-10-11T07:24:04.880Z,36.33
2018-10-11T07:26:33.533Z,34.07
2018-10-11T07:29:03.815Z,34.07
2018-10-11T07:31:32.437Z,34.23
2018-10-11T07:34:00.942Z,33.13
2018-10-11T07:36:29.466Z,33.80
2018-10-11T07:38:58.014Z,34.00
2018-10-11T07:41:26.526Z,34.50
2018-10-11T07:43:55.140Z,35.53
2018-10-11T07:46:23.651Z,35.23
2018-10-11T07:48:52.174Z,33.93
2018-10-11T07:51:20.696Z,35.27
2018-10-11T07:53:49.232Z,34.37
2018-10-11T07:56:17.760Z,33.73
2018-10-11T07:58:46.272Z,33.80
2018-10-11T08:01:14.801Z,34.03
2018-10-11T08:03:43.352Z,36.13
2018-10-11T08:06:11.842Z,33.77
2018-10-11T08:08:40.369Z,34.13
2018-10-11T08:11:09.166Z,33.10
2018-10-11T08:13:37.527Z,34.03
2018-10-11T08:16:06.491Z,32.93
2018-10-11T08:18:35.136Z,31.93
2018-10-11T08:21:05.259Z,32.10
2018-10-11T08:23:33.736Z,31.10
2018-10-11T08:26:04.263Z,32.53
2018-10-11T08:28:33.902Z,31.30
2018-10-11T08:31:03.912Z,30.20
2018-10-11T08:33:32.449Z,31.67
2018-10-11T08:36:02.793Z,32.70
2018-10-11T08:38:31.613Z,30.97
2018-10-11T08:41:00.463Z,30.87
2018-10-11T08:43:29.056Z,30.07
2018-10-11T08:45:57.522Z,29.87
2018-10-11T08:48:26.130Z,28.23
2018-10-11T08:50:54.719Z,27.17
2018-10-11T08:53:23.212Z,26.23
2018-10-11T08:55:51.831Z,26.37
2018-10-11T08:58:20.762Z,26.73
2018-10-11T09:00:49.644Z,26.40
2018-10-11T09:03:18.279Z,25.80
2018-10-11T09:05:46.853Z,26.50
2018-10-11T09:08:15.897Z,25.13
2018-10-11T09:10:44.727Z,24.70
2018-10-11T09:13:13.185Z,25.27
2018-10-11T09:15:41.741Z,25.67
2018-10-11T09:18:10.450Z,26.20
2018-10-11T09:20:38.964Z,25.93
2018-10-11T09:23:07.633Z,25.83
2018-10-11T09:25:36.253Z,25.40
2018-10-11T09:28:05.235Z,26.30
2018-10-11T09:30:33.772Z,25.93
2018-10-11T09:33:03.864Z,26.23
2018-10-11T09:35:32.397Z,25.67
2018-10-11T09:38:03.089Z,24.70
2018-10-11T09:40:31.580Z,25.43
2018-10-11T09:43:00.138Z,25.80
2018-10-11T09:45:28.677Z,25.37
2018-10-11T09:47:57.471Z,26.63
2018-10-11T09:50:26.513Z,25.80
2018-10-11T09:52:55.029Z,25.27
2018-10-11T09:55:23.615Z,24.57
2018-10-11T09:57:52.152Z,24.30
2018-10-11T10:00:25.907Z,23.40
2018-10-11T10:02:54.695Z,23.80
2018-10-11T10:05:23.282Z,23.27
2018-10-11T10:07:51.984Z,23.80
2018-10-11T10:10:20.519Z,23.47
2018-10-11T10:12:49.117Z,22.43
2018-10-11T10:15:17.676Z,22.43
2018-10-11T10:17:46.581Z,20.87
2018-10-11T10:20:16.962Z,21.30
2018-10-11T10:22:45.460Z,21.63
2018-10-11T10:25:13.985Z,20.73
2018-10-11T10:27:42.742Z,20.40
2018-10-11T10:30:17.460Z,21.10
2018-10-11T10:32:46.027Z,20.60
2018-10-11T10:35:14.536Z,19.70
2018-10-11T10:37:43.079Z,18.30
2018-10-11T10:40:11.648Z,19.93
2018-10-11T10:42:40.235Z,18.37
2018-10-11T10:45:08.855Z,17.60
2018-10-11T10:47:37.367Z,17.63
2018-10-11T10:50:09.098Z,16.93
2018-10-11T10:52:37.587Z,17.20
2018-10-11T10:55:06.664Z,17.27
2018-10-11T10:57:35.704Z,15.07
2018-10-11T11:00:06.580Z,15.07
2018-10-11T11:02:35.084Z,15.37
2018-10-11T11:05:05.270Z,15.80
2018-10-11T11:07:33.981Z,14.80
2018-10-11T11:10:04.208Z,15.27
2018-10-11T11:12:34.128Z,14.90
2018-10-11T11:15:03.938Z,15.07
2018-10-11T11:17:32.453Z,14.37
2018-10-11T11:20:00.949Z,13.67
2018-10-11T11:22:29.461Z,12.60
2018-10-11T11:24:58.002Z,12.37
2018-10-11T11:27:26.562Z,12.53
2018-10-11T11:29:55.114Z,13.00
2018-10-11T11:32:23.622Z,12.63
2018-10-11T11:34:52.156Z,11.70
2018-10-11T11:37:20.681Z,11.97
2018-10-11T11:39:49.308Z,10.73
2018-10-11T11:42:17.889Z,10.30
2018-10-11T11:44:46.440Z,11.30
2018-10-11T11:47:14.938Z,12.57
2018-10-11T11:49:43.485Z,12.63
2018-10-11T11:52:12.031Z,12.63
2018-10-11T11:54:40.525Z,11.83
2018-10-11T11:57:09.076Z,12.30
2018-10-11T11:59:37.765Z,11.83
2018-10-11T12:02:06.498Z,12.00
2018-10-11T12:04:35.120Z,11.43
2018-10-11T12:07:05.946Z,10.83
2018-10-11T12:09:34.453Z,11.07
2018-10-11T12:12:05.274Z,10.73
2018-10-11T12:14:33.786Z,10.53
2018-10-11T12:17:05.773Z,9.40
2018-10-11T12:19:34.447Z,8.93
2018-10-11T12:22:05.820Z,9.10
2018-10-11T12:24:34.459Z,8.53
2018-10-11T12:27:04.924Z,8.17
2018-10-11T12:29:33.669Z,7.80
2018-10-11T12:32:03.731Z,9.07
2018-10-11T12:34:32.300Z,9.33
2018-10-11T12:37:00.822Z,9.47
2018-10-11T12:39:29.730Z,9.00
2018-10-11T12:41:58.260Z,8.07
2018-10-11T12:44:26.815Z,8.37
2018-10-11T12:46:55.387Z,7.67
2018-10-11T12:49:23.975Z,7.87
2018-10-11T12:51:52.707Z,8.40
2018-10-11T12:54:21.579Z,8.27
2018-10-11T12:56:50.174Z,8.20
2018-10-11T12:59:18.709Z,9.17
2018-10-11T13:01:47.257Z,8.10
2018-10-11T13:04:15.803Z,7.33
2018-10-11T13:06:44.309Z,7.00
2018-10-11T13:09:12.883Z,6.53
2018-10-11T13:11:41.426Z,7.90
2018-10-11T13:14:10.328Z,7.47
2018-10-11T13:16:39.027Z,7.00
2018-10-11T13:19:07.549Z,7.60
2018-10-11T13:21:36.181Z,8.13
2018-10-11T13:24:05.328Z,7.33
2018-10-11T13:26:34.497Z,7.80
2018-10-11T13:29:04.552Z,7.77
2018-10-11T13:31:33.429Z,7.27
2018-10-11T13:34:03.187Z,7.90
2018-10-11T13:36:31.672Z,7.80
2018-10-11T13:39:00.237Z,8.70
2018-10-11T13:41:28.856Z,7.33
2018-10-11T13:43:57.649Z,6.90
2018-10-11T13:46:26.268Z,7.33
2018-10-11T13:48:54.970Z,7.30
2018-10-11T13:51:23.750Z,8.10
2018-10-11T13:53:57.157Z,7.97
2018-10-11T13:56:21.230Z,9.03
2018-10-11T13:58:49.796Z,8.70
2018-10-11T14:01:18.414Z,9.03
2018-10-11T14:03:47.415Z,9.23
2018-10-11T14:06:17.188Z,9.30
2018-10-11T14:08:45.740Z,8.97
2018-10-11T14:11:14.342Z,8.43
2018-10-11T14:13:42.969Z,8.60
2018-10-11T14:16:11.489Z,8.83
2018-10-11T14:18:40.087Z,9.00
2018-10-11T14:21:09.614Z,8.57
2018-10-11T14:23:38.691Z,9.40
2018-10-11T14:26:07.692Z,9.00
2018-10-11T14:28:36.340Z,8.57
2018-10-11T14:31:05.121Z,8.53
2018-10-11T14:33:33.647Z,8.00
2018-10-11T14:36:04.067Z,7.80
2018-10-11T14:38:32.645Z,7.23
2018-10-11T14:41:03.893Z,7.47
2018-10-11T14:43:32.565Z,7.47
2018-10-11T14:46:02.865Z,7.57
2018-10-11T14:48:31.416Z,7.30
2018-10-11T14:51:00.111Z,7.20
2018-10-11T14:53:28.592Z,7.90
2018-10-11T14:55:57.117Z,7.57
2018-10-11T14:58:25.669Z,7.27
2018-10-11T15:00:54.209Z,7.10
2018-10-11T15:03:23.106Z,7.27
2018-10-11T15:05:51.583Z,6.67
2018-10-11T15:08:20.155Z,6.87
2018-10-11T15:10:48.730Z,7.00
2018-10-11T15:13:17.198Z,6.93
2018-10-11T15:15:45.819Z,6.53
2018-10-11T15:18:15.037Z,7.03
2018-10-11T15:20:43.565Z,8.07
2018-10-11T15:23:12.122Z,7.80
2018-10-11T15:25:40.671Z,8.00
2018-10-11T15:28:09.335Z,8.50
2018-10-11T15:30:37.855Z,8.63
2018-10-11T15:33:06.390Z,9.20
2018-10-11T15:35:34.905Z,9.63
2018-10-11T15:38:05.099Z,9.90
2018-10-11T15:40:33.731Z,10.23
2018-10-11T15:43:04.526Z,10.03
2018-10-11T15:45:33.058Z,9.80
2018-10-11T15:48:02.803Z,9.70
2018-10-11T15:50:31.460Z,10.30
2018-10-11T15:53:00.470Z,10.30
2018-10-11T15:55:29.016Z,10.37
2018-10-11T15:57:57.517Z,10.27
2018-10-11T16:00:26.067Z,10.20
2018-10-11T16:02:54.596Z,10.27
2018-10-11T16:05:23.132Z,10.07
2018-10-11T16:07:51.745Z,9.87
2018-10-11T16:10:20.298Z,11.00
2018-10-11T16:12:48.980Z,9.77
2018-10-11T16:15:17.668Z,10.33
2018-10-11T16:17:46.259Z,10.50
2018-10-11T16:20:16.268Z,9.50
2018-10-11T16:22:44.798Z,10.57
2018-10-11T16:25:13.354Z,9.97
2018-10-11T16:27:42.200Z,10.40
2018-10-11T16:30:10.882Z,9.77
2018-10-11T16:32:39.468Z,9.13
2018-10-11T16:35:08.136Z,10.17
2018-10-11T16:37:36.654Z,9.83
2018-10-11T16:40:05.262Z,10.30
2018-10-11T16:42:33.842Z,10.13
2018-10-11T16:45:03.777Z,10.40
2018-10-11T16:47:32.304Z,9.83
2018-10-11T16:50:00.856Z,9.20
2018-10-11T16:52:29.428Z,9.50
2018-10-11T16:54:57.941Z,9.97
2018-10-11T16:57:26.442Z,9.43
2018-10-11T16:59:55.061Z,9.20
2018-10-11T17:02:23.586Z,9.40
2018-10-11T17:04:52.195Z,10.00
2018-10-11T17:07:20.737Z,9.13
2018-10-11T17:09:49.845Z,9.53
2018-10-11T17:12:18.334Z,10.07
2018-10-11T17:14:46.933Z,10.10
2018-10-11T17:17:15.616Z,10.43
2018-10-11T17:19:44.166Z,10.07
2018-10-11T17:22:12.805Z,10.53
2018-10-11T17:24:41.248Z,11.03
2018-10-11T17:27:09.794Z,10.17
2018-10-11T17:29:38.377Z,10.83
2018-10-11T17:32:07.321Z,11.03
2018-10-11T17:34:35.880Z,10.60
2018-10-11T17:37:05.692Z,11.37
2018-10-11T17:39:34.248Z,11.27
2018-10-11T17:42:05.282Z,11.17
2018-10-11T17:44:33.826Z,11.40
2018-10-11T17:47:03.804Z,11.50
2018-10-11T17:49:32.939Z,12.50
2018-10-11T17:52:02.850Z,11.67
2018-10-11T17:54:31.514Z,11.57
2018-10-11T17:57:00.087Z,11.60
2018-10-11T17:59:28.699Z,11.33
2018-10-11T18:01:57.326Z,11.63
2018-10-11T18:04:26.528Z,10.60
2018-10-11T18:06:55.107Z,11.20
2018-10-11T18:09:23.682Z,11.37
2018-10-11T18:11:53.452Z,11.13
2018-10-11T18:14:22.161Z,11.77
2018-10-11T18:16:50.755Z,11.47
2018-10-11T18:19:19.572Z,10.20
2018-10-11T18:21:49.281Z,11.50
2018-10-11T18:24:17.693Z,11.57
2018-10-11T18:26:46.268Z,11.57
2018-10-11T18:29:14.878Z,11.13
2018-10-11T18:31:43.479Z,11.90
2018-10-11T18:34:12.067Z,11.37
2018-10-11T18:36:40.663Z,11.87
2018-10-11T18:39:13.530Z,11.20
2018-10-11T18:41:42.430Z,11.87
2018-10-11T18:44:11.671Z,11.03
2018-10-11T18:46:40.321Z,12.43
2018-10-11T18:49:09.557Z,11.47
2018-10-11T18:51:38.230Z,11.80
2018-10-11T18:54:06.982Z,11.23
2018-10-11T18:56:36.426Z,12.50
2018-10-11T18:59:09.089Z,12.03
2018-10-11T19:01:37.736Z,11.40
2018-10-11T19:04:07.021Z,11.23
2018-10-11T19:06:35.926Z,12.03
2018-10-11T19:09:09.293Z,12.57
2018-10-11T19:11:38.187Z,12.17
2018-10-11T19:14:06.863Z,12.53
2018-10-11T19:16:35.792Z,12.97
2018-10-11T19:19:05.624Z,13.13
2018-10-11T19:21:34.331Z,13.20
2018-10-11T19:24:04.639Z,13.67
2018-10-11T19:26:33.334Z,13.20
2018-10-11T19:29:02.764Z,13.37
2018-10-11T19:31:31.699Z,14.27
2018-10-11T19:34:00.349Z,13.47
2018-10-11T19:36:29.334Z,13.50
2018-10-11T19:38:57.934Z,14.83
2018-10-11T19:41:26.530Z,13.40
2018-10-11T19:43:55.570Z,13.80
2018-10-11T19:46:24.268Z,14.33
2018-10-11T19:48:52.883Z,13.83
2018-10-11T19:51:21.528Z,13.43
2018-10-11T19:53:50.128Z,14.17
2018-10-11T19:56:18.661Z,14.77
2018-10-11T19:58:47.626Z,14.27
2018-10-11T20:01:17.373Z,14.77
2018-10-11T20:03:46.064Z,15.23
2018-10-11T20:06:14.723Z,14.80
2018-10-11T20:08:43.315Z,15.07
2018-10-11T20:11:11.994Z,15.13
2018-10-11T20:13:40.685Z,15.80
2018-10-11T20:16:09.287Z,14.77
2018-10-11T20:18:38.737Z,15.63
2018-10-11T20:21:07.881Z,16.00
2018-10-11T20:23:37.497Z,16.10
2018-10-11T20:26:06.571Z,15.13
2018-10-11T20:28:34.990Z,15.60
2018-10-11T20:31:05.578Z,15.77
2018-10-11T20:33:34.156Z,15.13
2018-10-11T20:36:05.254Z,15.57
2018-10-11T20:38:34.011Z,16.17
2018-10-11T20:41:03.712Z,16.00
2018-10-11T20:43:33.852Z,15.83
2018-10-11T20:46:04.184Z,15.80
2018-10-11T20:48:32.972Z,15.87
2018-10-11T20:51:03.254Z,15.10
2018-10-11T20:53:31.769Z,14.57
2018-10-11T20:56:00.345Z,14.87
2018-10-11T20:58:29.150Z,15.37
2018-10-11T21:00:57.713Z,15.47
2018-10-11T21:03:26.245Z,15.33
2018-10-11T21:05:55.063Z,15.90
2018-10-11T21:08:23.597Z,16.50
2018-10-11T21:10:52.125Z,15.90
2018-10-11T21:13:20.645Z,15.87
2018-10-11T21:15:49.142Z,16.33
2018-10-11T21:18:17.722Z,16.40
2018-10-11T21:20:46.238Z,17.07
2018-10-11T21:23:14.730Z,16.80
2018-10-11T21:25:43.255Z,16.90
2018-10-11T21:28:11.804Z,17.93
2018-10-11T21:30:40.448Z,16.80
2018-10-11T21:33:09.313Z,16.67
2018-10-11T21:35:37.942Z,16.07
2018-10-11T21:38:06.852Z,17.30
2018-10-11T21:40:35.591Z,17.00
2018-10-11T21:43:05.765Z,17.37
2018-10-11T21:45:39.814Z,17.13
2018-10-11T21:48:08.343Z,16.57
2018-10-11T21:50:38.210Z,17.07
2018-10-11T21:53:06.761Z,17.97
2018-10-11T21:55:35.260Z,17.97
2018-10-11T21:58:05.784Z,16.83
2018-10-11T22:00:39.460Z,16.73
2018-10-11T22:03:08.189Z,18.40
2018-10-11T22:05:36.694Z,18.43
2018-10-11T22:08:06.237Z,18.63
2018-10-11T22:10:34.993Z,18.50
2018-10-11T22:13:05.520Z,18.73
2018-10-11T22:15:33.988Z,17.97
2018-10-11T22:18:04.160Z,19.30
2018-10-11T22:20:32.676Z,19.60
2018-10-11T22:23:03.178Z,18.93
2018-10-11T22:25:31.684Z,19.40
2018-10-11T22:28:00.256Z,19.80
2018-10-11T22:30:29.118Z,18.97
2018-10-11T22:32:57.631Z,19.73
2018-10-11T22:35:26.164Z,19.43
2018-10-11T22:37:59.494Z,20.00
2018-10-11T22:40:28.282Z,18.70
2018-10-11T22:42:57.651Z,20.00
2018-10-11T22:45:27.402Z,19.00
2018-10-11T22:47:56.855Z,19.93
2018-10-11T22:50:26.567Z,19.83
2018-10-11T22:52:55.902Z,19.70
2018-10-11T22:55:24.948Z,19.07
2018-10-11T22:57:53.854Z,19.47
2018-10-11T23:00:22.652Z,20.53
2018-10-11T23:02:52.344Z,20.27
2018-10-11T23:05:21.066Z,20.10
2018-10-11T23:07:49.638Z,20.07
2018-10-11T23:10:19.023Z,20.67
2018-10-11T23:12:47.606Z,20.37
2018-10-11T23:15:16.140Z,21.23
2018-10-11T23:17:44.677Z,20.43
2018-10-11T23:20:13.222Z,21.43
2018-10-11T23:22:42.378Z,21.37
2018-10-11T23:25:11.662Z,21.63
2018-10-11T23:27:41.162Z,22.57
2018-10-11T23:30:10.981Z,21.97
2018-10-11T23:32:40.353Z,21.77
2018-10-11T23:35:09.385Z,22.10
2018-10-11T23:37:38.122Z,22.37
2018-10-11T23:40:06.780Z,22.63
2018-10-11T23:42:35.650Z,22.87
2018-10-11T23:45:05.153Z,22.13
2018-10-11T23:47:33.737Z,22.03
2018-10-11T23:50:04.280Z,22.20
2018-10-11T23:52:32.977Z,24.13
2018-10-11T23:55:04.892Z,22.93
2018-10-11T23:57:33.486Z,22.47
